sensor_id;sensor_type;location;lat;lon;timestamp;P1;durP1;ratioP1;P2;durP2;ratioP2
18754;SDS011;35061;47.664;9.166;2023-05-29T00:01:10;7.03;;;4.43;;
18754;SDS011;35061;47.664;9.166;2023-05-29T00:03:38;5.40;;;4.30;;
18754;SDS011;35061;47.664;9.166;2023-05-29T00:06:06;5.90;;;3.90;;
18754;SDS011;35061;47.664;9.166;2023-05-29T00:08:34;7.80;;;4.57;;
18754;SDS011;35061;47.664;9.166;2023-05-29T00:11:02;6.90;;;4.50;;
18754;SDS011;35061;47.664;9.166;2023-05-29T00:13:30;5.95;;;4.43;;
18754;SDS011;35061;47.664;9.166;2023-05-29T00:15:58;5.37;;;4.28;;
18754;SDS011;35061;47.664;9.166;2023-05-29T00:18:28;6.12;;;4.35;;
18754;SDS011;35061;47.664;9.166;2023-05-29T00:20:56;6.93;;;4.30;;
18754;SDS011;35061;47.664;9.166;2023-05-29T00:23:24;6.72;;;4.37;;
18754;SDS011;35061;47.664;9.166;2023-05-29T00:25:52;6.62;;;4.80;;
18754;SDS011;35061;47.664;9.166;2023-05-29T00:28:20;6.25;;;4.07;;
18754;SDS011;35061;47.664;9.166;2023-05-29T00:30:48;6.65;;;4.00;;
18754;SDS011;35061;47.664;9.166;2023-05-29T00:33:16;7.80;;;4.62;;
18754;SDS011;35061;47.664;9.166;2023-05-29T00:35:46;6.65;;;4.40;;
18754;SDS011;35061;47.664;9.166;2023-05-29T00:38:14;6.47;;;4.60;;
18754;SDS011;35061;47.664;9.166;2023-05-29T00:40:42;5.30;;;3.85;;
18754;SDS011;35061;47.664;9.166;2023-05-29T00:43:10;5.75;;;4.28;;
18754;SDS011;35061;47.664;9.166;2023-05-29T00:45:38;6.03;;;4.43;;
18754;SDS011;35061;47.664;9.166;2023-05-29T00:48:06;6.80;;;4.00;;
18754;SDS011;35061;47.664;9.166;2023-05-29T00:50:35;6.25;;;4.20;;
18754;SDS011;35061;47.664;9.166;2023-05-29T00:53:04;5.93;;;4.03;;
18754;SDS011;35061;47.664;9.166;2023-05-29T00:55:33;6.35;;;4.28;;
18754;SDS011;35061;47.664;9.166;2023-05-29T00:58:02;6.28;;;4.70;;
18754;SDS011;35061;47.664;9.166;2023-05-29T01:00:32;6.22;;;4.50;;
18754;SDS011;35061;47.664;9.166;2023-05-29T01:03:02;7.57;;;4.45;;
18754;SDS011;35061;47.664;9.166;2023-05-29T01:05:33;6.47;;;4.55;;
18754;SDS011;35061;47.664;9.166;2023-05-29T01:08:02;6.75;;;5.05;;
18754;SDS011;35061;47.664;9.166;2023-05-29T01:10:30;5.68;;;4.07;;
18754;SDS011;35061;47.664;9.166;2023-05-29T01:13:03;6.80;;;4.78;;
18754;SDS011;35061;47.664;9.166;2023-05-29T01:21:26;6.72;;;4.80;;
18754;SDS011;35061;47.664;9.166;2023-05-29T01:24:55;7.93;;;5.47;;
18754;SDS011;35061;47.664;9.166;2023-05-29T01:27:06;8.30;;;5.12;;
18754;SDS011;35061;47.664;9.166;2023-05-29T01:29:38;6.43;;;4.65;;
18754;SDS011;35061;47.664;9.166;2023-05-29T01:32:10;8.10;;;5.05;;
18754;SDS011;35061;47.664;9.166;2023-05-29T01:34:38;7.25;;;4.87;;
18754;SDS011;35061;47.664;9.166;2023-05-29T01:37:06;5.75;;;4.07;;
18754;SDS011;35061;47.664;9.166;2023-05-29T01:39:34;6.35;;;4.68;;
18754;SDS011;35061;47.664;9.166;2023-05-29T01:42:03;6.05;;;4.00;;
18754;SDS011;35061;47.664;9.166;2023-05-29T01:44:32;5.35;;;4.50;;
18754;SDS011;35061;47.664;9.166;2023-05-29T01:47:01;8.68;;;4.62;;
18754;SDS011;35061;47.664;9.166;2023-05-29T01:49:30;7.82;;;4.65;;
18754;SDS011;35061;47.664;9.166;2023-05-29T01:51:59;6.93;;;4.37;;
18754;SDS011;35061;47.664;9.166;2023-05-29T01:54:27;7.12;;;4.20;;
18754;SDS011;35061;47.664;9.166;2023-05-29T01:56:55;8.18;;;4.53;;
18754;SDS011;35061;47.664;9.166;2023-05-29T01:59:23;6.30;;;4.20;;
18754;SDS011;35061;47.664;9.166;2023-05-29T02:01:52;6.93;;;4.55;;
18754;SDS011;35061;47.664;9.166;2023-05-29T02:04:20;6.68;;;4.18;;
18754;SDS011;35061;47.664;9.166;2023-05-29T02:06:48;7.45;;;4.80;;
18754;SDS011;35061;47.664;9.166;2023-05-29T02:09:16;8.25;;;4.85;;
18754;SDS011;35061;47.664;9.166;2023-05-29T02:11:45;6.62;;;4.62;;
18754;SDS011;35061;47.664;9.166;2023-05-29T02:14:13;7.35;;;4.55;;
18754;SDS011;35061;47.664;9.166;2023-05-29T02:16:41;7.07;;;4.47;;
18754;SDS011;35061;47.664;9.166;2023-05-29T02:19:11;6.25;;;4.78;;
18754;SDS011;35061;47.664;9.166;2023-05-29T02:21:39;7.55;;;5.22;;
18754;SDS011;35061;47.664;9.166;2023-05-29T02:24:10;8.02;;;5.03;;
18754;SDS011;35061;47.664;9.166;2023-05-29T02:26:38;7.97;;;4.72;;
18754;SDS011;35061;47.664;9.166;2023-05-29T02:29:06;9.35;;;5.45;;
18754;SDS011;35061;47.664;9.166;2023-05-29T02:31:34;6.62;;;4.50;;
18754;SDS011;35061;47.664;9.166;2023-05-29T02:34:02;8.40;;;5.00;;
18754;SDS011;35061;47.664;9.166;2023-05-29T02:36:30;6.90;;;4.85;;
18754;SDS011;35061;47.664;9.166;2023-05-29T02:38:58;9.43;;;5.07;;
18754;SDS011;35061;47.664;9.166;2023-05-29T02:41:26;7.07;;;4.65;;
18754;SDS011;35061;47.664;9.166;2023-05-29T02:43:54;6.05;;;4.22;;
18754;SDS011;35061;47.664;9.166;2023-05-29T02:46:22;7.68;;;4.78;;
18754;SDS011;35061;47.664;9.166;2023-05-29T02:48:50;6.57;;;4.20;;
18754;SDS011;35061;47.664;9.166;2023-05-29T02:51:17;7.80;;;5.25;;
18754;SDS011;35061;47.664;9.166;2023-05-29T02:53:45;6.62;;;4.28;;
18754;SDS011;35061;47.664;9.166;2023-05-29T02:56:13;5.62;;;4.55;;
18754;SDS011;35061;47.664;9.166;2023-05-29T02:58:43;5.82;;;4.50;;
18754;SDS011;35061;47.664;9.166;2023-05-29T03:01:11;6.85;;;4.60;;
18754;SDS011;35061;47.664;9.166;2023-05-29T03:03:39;5.57;;;4.15;;
18754;SDS011;35061;47.664;9.166;2023-05-29T03:06:07;7.62;;;4.68;;
18754;SDS011;35061;47.664;9.166;2023-05-29T03:08:37;7.60;;;4.72;;
18754;SDS011;35061;47.664;9.166;2023-05-29T03:11:08;7.15;;;4.37;;
18754;SDS011;35061;47.664;9.166;2023-05-29T03:13:39;6.37;;;4.95;;
18754;SDS011;35061;47.664;9.166;2023-05-29T03:16:07;5.55;;;4.00;;
18754;SDS011;35061;47.664;9.166;2023-05-29T03:18:35;7.37;;;4.22;;
18754;SDS011;35061;47.664;9.166;2023-05-29T03:21:03;6.68;;;4.30;;
18754;SDS011;35061;47.664;9.166;2023-05-29T03:23:31;6.00;;;4.50;;
18754;SDS011;35061;47.664;9.166;2023-05-29T03:25:59;7.28;;;4.60;;
18754;SDS011;35061;47.664;9.166;2023-05-29T03:28:27;6.78;;;4.78;;
18754;SDS011;35061;47.664;9.166;2023-05-29T03:30:55;6.97;;;4.80;;
18754;SDS011;35061;47.664;9.166;2023-05-29T03:33:23;6.20;;;4.43;;
18754;SDS011;35061;47.664;9.166;2023-05-29T03:35:51;6.50;;;4.57;;
18754;SDS011;35061;47.664;9.166;2023-05-29T03:38:19;5.43;;;4.25;;
18754;SDS011;35061;47.664;9.166;2023-05-29T03:40:47;7.10;;;4.60;;
18754;SDS011;35061;47.664;9.166;2023-05-29T03:43:15;5.87;;;4.47;;
18754;SDS011;35061;47.664;9.166;2023-05-29T03:45:43;8.85;;;4.85;;
18754;SDS011;35061;47.664;9.166;2023-05-29T03:48:11;6.45;;;4.65;;
18754;SDS011;35061;47.664;9.166;2023-05-29T03:50:39;6.95;;;4.87;;
18754;SDS011;35061;47.664;9.166;2023-05-29T03:53:07;7.72;;;4.70;;
18754;SDS011;35061;47.664;9.166;2023-05-29T03:55:35;6.00;;;4.53;;
18754;SDS011;35061;47.664;9.166;2023-05-29T03:58:03;5.47;;;4.35;;
18754;SDS011;35061;47.664;9.166;2023-05-29T04:00:31;7.28;;;5.12;;
18754;SDS011;35061;47.664;9.166;2023-05-29T04:02:59;8.15;;;5.07;;
18754;SDS011;35061;47.664;9.166;2023-05-29T04:05:27;7.03;;;4.57;;
18754;SDS011;35061;47.664;9.166;2023-05-29T04:07:55;7.20;;;4.57;;
18754;SDS011;35061;47.664;9.166;2023-05-29T04:10:40;9.50;;;5.53;;
18754;SDS011;35061;47.664;9.166;2023-05-29T04:13:08;5.65;;;5.00;;
18754;SDS011;35061;47.664;9.166;2023-05-29T04:15:36;7.70;;;5.30;;
18754;SDS011;35061;47.664;9.166;2023-05-29T04:18:05;7.87;;;5.40;;
18754;SDS011;35061;47.664;9.166;2023-05-29T04:20:33;5.53;;;4.70;;
18754;SDS011;35061;47.664;9.166;2023-05-29T04:23:01;7.37;;;4.90;;
18754;SDS011;35061;47.664;9.166;2023-05-29T04:25:29;7.20;;;4.70;;
18754;SDS011;35061;47.664;9.166;2023-05-29T04:27:57;6.22;;;4.53;;
18754;SDS011;35061;47.664;9.166;2023-05-29T04:30:25;5.80;;;4.72;;
18754;SDS011;35061;47.664;9.166;2023-05-29T04:32:53;7.30;;;5.10;;
18754;SDS011;35061;47.664;9.166;2023-05-29T04:35:21;7.62;;;5.22;;
18754;SDS011;35061;47.664;9.166;2023-05-29T04:37:52;7.35;;;5.18;;
18754;SDS011;35061;47.664;9.166;2023-05-29T04:40:20;8.63;;;4.65;;
18754;SDS011;35061;47.664;9.166;2023-05-29T04:42:48;6.75;;;4.72;;
18754;SDS011;35061;47.664;9.166;2023-05-29T04:45:19;7.32;;;4.45;;
18754;SDS011;35061;47.664;9.166;2023-05-29T04:47:48;8.60;;;4.75;;
18754;SDS011;35061;47.664;9.166;2023-05-29T04:50:17;6.93;;;4.80;;
18754;SDS011;35061;47.664;9.166;2023-05-29T04:52:45;7.37;;;4.90;;
18754;SDS011;35061;47.664;9.166;2023-05-29T04:55:13;10.57;;;5.53;;
18754;SDS011;35061;47.664;9.166;2023-05-29T04:57:41;7.95;;;5.30;;
18754;SDS011;35061;47.664;9.166;2023-05-29T05:00:09;7.85;;;5.18;;
18754;SDS011;35061;47.664;9.166;2023-05-29T05:02:42;7.22;;;4.85;;
18754;SDS011;35061;47.664;9.166;2023-05-29T05:05:11;7.12;;;4.68;;
18754;SDS011;35061;47.664;9.166;2023-05-29T05:07:39;5.22;;;4.30;;
18754;SDS011;35061;47.664;9.166;2023-05-29T05:10:07;6.70;;;4.50;;
18754;SDS011;35061;47.664;9.166;2023-05-29T05:12:36;7.53;;;4.55;;
18754;SDS011;35061;47.664;9.166;2023-05-29T05:15:04;9.60;;;5.03;;
18754;SDS011;35061;47.664;9.166;2023-05-29T05:17:33;6.68;;;4.40;;
18754;SDS011;35061;47.664;9.166;2023-05-29T05:20:01;5.55;;;4.37;;
18754;SDS011;35061;47.664;9.166;2023-05-29T05:22:29;5.45;;;3.87;;
18754;SDS011;35061;47.664;9.166;2023-05-29T05:24:57;6.72;;;3.95;;
18754;SDS011;35061;47.664;9.166;2023-05-29T05:27:26;7.20;;;4.80;;
18754;SDS011;35061;47.664;9.166;2023-05-29T05:29:54;6.07;;;4.20;;
18754;SDS011;35061;47.664;9.166;2023-05-29T05:32:22;6.72;;;4.40;;
18754;SDS011;35061;47.664;9.166;2023-05-29T05:34:50;7.85;;;4.07;;
18754;SDS011;35061;47.664;9.166;2023-05-29T05:37:18;6.25;;;4.30;;
18754;SDS011;35061;47.664;9.166;2023-05-29T05:39:47;5.78;;;4.00;;
18754;SDS011;35061;47.664;9.166;2023-05-29T05:42:15;6.15;;;4.18;;
18754;SDS011;35061;47.664;9.166;2023-05-29T05:44:43;7.20;;;4.10;;
18754;SDS011;35061;47.664;9.166;2023-05-29T05:47:11;7.75;;;4.75;;
18754;SDS011;35061;47.664;9.166;2023-05-29T05:49:39;5.65;;;3.92;;
18754;SDS011;35061;47.664;9.166;2023-05-29T05:52:08;6.57;;;4.45;;
18754;SDS011;35061;47.664;9.166;2023-05-29T05:54:36;7.82;;;4.10;;
18754;SDS011;35061;47.664;9.166;2023-05-29T05:57:04;7.20;;;3.97;;
18754;SDS011;35061;47.664;9.166;2023-05-29T05:59:32;5.37;;;4.40;;
18754;SDS011;35061;47.664;9.166;2023-05-29T06:02:00;8.07;;;4.60;;
18754;SDS011;35061;47.664;9.166;2023-05-29T06:04:28;6.35;;;4.32;;
18754;SDS011;35061;47.664;9.166;2023-05-29T06:06:56;8.48;;;4.40;;
18754;SDS011;35061;47.664;9.166;2023-05-29T06:09:24;6.20;;;4.12;;
18754;SDS011;35061;47.664;9.166;2023-05-29T06:11:53;5.75;;;4.07;;
18754;SDS011;35061;47.664;9.166;2023-05-29T06:14:21;6.50;;;4.60;;
18754;SDS011;35061;47.664;9.166;2023-05-29T06:16:49;5.78;;;4.40;;
18754;SDS011;35061;47.664;9.166;2023-05-29T06:19:18;7.18;;;3.85;;
18754;SDS011;35061;47.664;9.166;2023-05-29T06:21:46;6.50;;;4.35;;
18754;SDS011;35061;47.664;9.166;2023-05-29T06:24:14;6.43;;;4.60;;
18754;SDS011;35061;47.664;9.166;2023-05-29T06:26:42;7.28;;;4.60;;
18754;SDS011;35061;47.664;9.166;2023-05-29T06:29:10;7.30;;;4.50;;
18754;SDS011;35061;47.664;9.166;2023-05-29T06:31:38;8.93;;;4.68;;
18754;SDS011;35061;47.664;9.166;2023-05-29T06:34:06;6.72;;;4.25;;
18754;SDS011;35061;47.664;9.166;2023-05-29T06:36:34;5.87;;;4.57;;
18754;SDS011;35061;47.664;9.166;2023-05-29T06:39:02;7.18;;;4.20;;
18754;SDS011;35061;47.664;9.166;2023-05-29T06:41:30;5.80;;;4.20;;
18754;SDS011;35061;47.664;9.166;2023-05-29T06:43:59;7.50;;;4.65;;
18754;SDS011;35061;47.664;9.166;2023-05-29T06:46:28;6.22;;;4.43;;
18754;SDS011;35061;47.664;9.166;2023-05-29T06:48:57;5.30;;;3.87;;
18754;SDS011;35061;47.664;9.166;2023-05-29T06:51:25;6.30;;;4.78;;
18754;SDS011;35061;47.664;9.166;2023-05-29T06:53:53;4.93;;;4.15;;
18754;SDS011;35061;47.664;9.166;2023-05-29T06:56:21;6.07;;;4.57;;
18754;SDS011;35061;47.664;9.166;2023-05-29T06:58:49;8.13;;;4.53;;
18754;SDS011;35061;47.664;9.166;2023-05-29T07:01:17;6.75;;;4.70;;
18754;SDS011;35061;47.664;9.166;2023-05-29T07:03:46;6.55;;;4.43;;
18754;SDS011;35061;47.664;9.166;2023-05-29T07:06:14;7.03;;;3.95;;
18754;SDS011;35061;47.664;9.166;2023-05-29T07:08:42;5.45;;;4.20;;
18754;SDS011;35061;47.664;9.166;2023-05-29T07:11:10;5.70;;;4.53;;
18754;SDS011;35061;47.664;9.166;2023-05-29T07:13:38;6.87;;;4.55;;
18754;SDS011;35061;47.664;9.166;2023-05-29T07:16:06;7.30;;;4.22;;
18754;SDS011;35061;47.664;9.166;2023-05-29T07:18:50;8.50;;;4.85;;
18754;SDS011;35061;47.664;9.166;2023-05-29T07:21:17;7.32;;;4.28;;
18754;SDS011;35061;47.664;9.166;2023-05-29T07:23:47;6.62;;;4.62;;
18754;SDS011;35061;47.664;9.166;2023-05-29T07:26:15;7.55;;;4.28;;
18754;SDS011;35061;47.664;9.166;2023-05-29T07:28:43;6.15;;;4.30;;
18754;SDS011;35061;47.664;9.166;2023-05-29T07:31:12;6.57;;;4.20;;
18754;SDS011;35061;47.664;9.166;2023-05-29T07:33:40;6.65;;;4.95;;
18754;SDS011;35061;47.664;9.166;2023-05-29T07:36:09;8.25;;;5.03;;
18754;SDS011;35061;47.664;9.166;2023-05-29T07:38:37;5.97;;;3.83;;
18754;SDS011;35061;47.664;9.166;2023-05-29T07:41:04;8.18;;;4.82;;
18754;SDS011;35061;47.664;9.166;2023-05-29T07:43:33;5.85;;;4.12;;
18754;SDS011;35061;47.664;9.166;2023-05-29T07:46:01;6.35;;;4.40;;
18754;SDS011;35061;47.664;9.166;2023-05-29T07:48:29;7.28;;;4.47;;
18754;SDS011;35061;47.664;9.166;2023-05-29T07:50:57;7.85;;;4.55;;
18754;SDS011;35061;47.664;9.166;2023-05-29T07:53:25;7.37;;;5.18;;
18754;SDS011;35061;47.664;9.166;2023-05-29T07:55:53;8.82;;;4.30;;
18754;SDS011;35061;47.664;9.166;2023-05-29T07:58:21;7.97;;;4.72;;
18754;SDS011;35061;47.664;9.166;2023-05-29T08:00:49;6.97;;;4.93;;
18754;SDS011;35061;47.664;9.166;2023-05-29T08:03:17;9.40;;;4.90;;
18754;SDS011;35061;47.664;9.166;2023-05-29T08:05:45;8.73;;;4.70;;
18754;SDS011;35061;47.664;9.166;2023-05-29T08:08:13;6.37;;;4.53;;
18754;SDS011;35061;47.664;9.166;2023-05-29T08:10:41;5.95;;;4.62;;
18754;SDS011;35061;47.664;9.166;2023-05-29T08:13:09;7.45;;;4.28;;
18754;SDS011;35061;47.664;9.166;2023-05-29T08:15:37;5.30;;;4.20;;
18754;SDS011;35061;47.664;9.166;2023-05-29T08:18:05;8.13;;;3.85;;
18754;SDS011;35061;47.664;9.166;2023-05-29T08:20:34;6.78;;;3.85;;
18754;SDS011;35061;47.664;9.166;2023-05-29T08:23:02;6.00;;;4.95;;
18754;SDS011;35061;47.664;9.166;2023-05-29T08:25:30;8.35;;;4.80;;
18754;SDS011;35061;47.664;9.166;2023-05-29T08:27:58;5.65;;;4.22;;
18754;SDS011;35061;47.664;9.166;2023-05-29T08:30:26;7.10;;;4.03;;
18754;SDS011;35061;47.664;9.166;2023-05-29T08:32:54;7.30;;;5.15;;
18754;SDS011;35061;47.664;9.166;2023-05-29T08:35:22;7.75;;;4.57;;
18754;SDS011;35061;47.664;9.166;2023-05-29T08:37:50;6.15;;;4.32;;
18754;SDS011;35061;47.664;9.166;2023-05-29T08:40:18;6.72;;;4.87;;
18754;SDS011;35061;47.664;9.166;2023-05-29T08:42:47;8.18;;;4.03;;
18754;SDS011;35061;47.664;9.166;2023-05-29T08:45:20;5.43;;;3.85;;
18754;SDS011;35061;47.664;9.166;2023-05-29T08:47:51;7.12;;;4.72;;
18754;SDS011;35061;47.664;9.166;2023-05-29T08:50:21;7.37;;;4.10;;
18754;SDS011;35061;47.664;9.166;2023-05-29T08:52:50;6.53;;;4.85;;
18754;SDS011;35061;47.664;9.166;2023-05-29T08:55:18;5.25;;;3.85;;
18754;SDS011;35061;47.664;9.166;2023-05-29T08:57:47;5.53;;;4.12;;
18754;SDS011;35061;47.664;9.166;2023-05-29T09:00:16;5.03;;;4.12;;
18754;SDS011;35061;47.664;9.166;2023-05-29T09:02:46;6.60;;;4.03;;
18754;SDS011;35061;47.664;9.166;2023-05-29T09:05:14;5.68;;;4.62;;
18754;SDS011;35061;47.664;9.166;2023-05-29T09:07:42;7.20;;;4.78;;
18754;SDS011;35061;47.664;9.166;2023-05-29T09:10:11;6.10;;;4.43;;
18754;SDS011;35061;47.664;9.166;2023-05-29T09:12:39;6.57;;;4.53;;
18754;SDS011;35061;47.664;9.166;2023-05-29T09:15:19;5.85;;;4.32;;
18754;SDS011;35061;47.664;9.166;2023-05-29T09:17:52;6.03;;;4.55;;
18754;SDS011;35061;47.664;9.166;2023-05-29T09:20:23;6.30;;;4.22;;
18754;SDS011;35061;47.664;9.166;2023-05-29T09:22:52;8.68;;;4.82;;
18754;SDS011;35061;47.664;9.166;2023-05-29T09:25:28;7.00;;;5.00;;
18754;SDS011;35061;47.664;9.166;2023-05-29T09:27:59;8.90;;;4.70;;
18754;SDS011;35061;47.664;9.166;2023-05-29T09:30:34;5.43;;;4.18;;
18754;SDS011;35061;47.664;9.166;2023-05-29T09:33:08;7.37;;;4.40;;
18754;SDS011;35061;47.664;9.166;2023-05-29T09:35:38;5.95;;;4.22;;
18754;SDS011;35061;47.664;9.166;2023-05-29T09:38:08;5.57;;;4.43;;
18754;SDS011;35061;47.664;9.166;2023-05-29T09:40:49;5.15;;;4.65;;
18754;SDS011;35061;47.664;9.166;2023-05-29T09:43:18;4.87;;;4.35;;
18754;SDS011;35061;47.664;9.166;2023-05-29T09:45:47;5.80;;;4.80;;
18754;SDS011;35061;47.664;9.166;2023-05-29T09:48:18;6.50;;;4.15;;
18754;SDS011;35061;47.664;9.166;2023-05-29T09:50:50;4.87;;;3.67;;
18754;SDS011;35061;47.664;9.166;2023-05-29T09:53:22;5.97;;;4.50;;
18754;SDS011;35061;47.664;9.166;2023-05-29T09:55:56;6.90;;;5.37;;
18754;SDS011;35061;47.664;9.166;2023-05-29T09:58:26;7.85;;;4.55;;
18754;SDS011;35061;47.664;9.166;2023-05-29T10:00:56;7.05;;;4.75;;
18754;SDS011;35061;47.664;9.166;2023-05-29T10:03:25;6.03;;;4.47;;
18754;SDS011;35061;47.664;9.166;2023-05-29T10:05:54;5.55;;;4.45;;
18754;SDS011;35061;47.664;9.166;2023-05-29T10:08:25;5.35;;;4.82;;
18754;SDS011;35061;47.664;9.166;2023-05-29T10:10:59;6.28;;;4.50;;
18754;SDS011;35061;47.664;9.166;2023-05-29T10:13:38;4.90;;;3.90;;
18754;SDS011;35061;47.664;9.166;2023-05-29T10:16:10;5.53;;;4.35;;
18754;SDS011;35061;47.664;9.166;2023-05-29T10:18:43;5.75;;;4.35;;
18754;SDS011;35061;47.664;9.166;2023-05-29T10:21:16;5.15;;;4.35;;
18754;SDS011;35061;47.664;9.166;2023-05-29T10:23:46;5.93;;;4.22;;
18754;SDS011;35061;47.664;9.166;2023-05-29T10:26:24;5.32;;;4.47;;
18754;SDS011;35061;47.664;9.166;2023-05-29T10:29:15;4.72;;;3.80;;
18754;SDS011;35061;47.664;9.166;2023-05-29T10:37:24;5.62;;;4.40;;
18754;SDS011;35061;47.664;9.166;2023-05-29T10:40:06;6.60;;;4.65;;
18754;SDS011;35061;47.664;9.166;2023-05-29T10:50:43;7.68;;;4.72;;
18754;SDS011;35061;47.664;9.166;2023-05-29T10:53:16;7.22;;;4.22;;
18754;SDS011;35061;47.664;9.166;2023-05-29T10:55:46;5.37;;;4.22;;
18754;SDS011;35061;47.664;9.166;2023-05-29T10:58:20;6.57;;;4.50;;
18754;SDS011;35061;47.664;9.166;2023-05-29T11:00:54;9.57;;;5.20;;
18754;SDS011;35061;47.664;9.166;2023-05-29T11:03:30;4.82;;;4.30;;
18754;SDS011;35061;47.664;9.166;2023-05-29T11:08:34;5.78;;;4.40;;
18754;SDS011;35061;47.664;9.166;2023-05-29T11:11:03;5.85;;;4.65;;
18754;SDS011;35061;47.664;9.166;2023-05-29T11:13:33;5.70;;;3.97;;
18754;SDS011;35061;47.664;9.166;2023-05-29T11:16:13;6.20;;;4.53;;
18754;SDS011;35061;47.664;9.166;2023-05-29T11:18:42;5.28;;;4.37;;
18754;SDS011;35061;47.664;9.166;2023-05-29T11:24:02;7.07;;;4.28;;
18754;SDS011;35061;47.664;9.166;2023-05-29T11:26:33;4.78;;;3.55;;
18754;SDS011;35061;47.664;9.166;2023-05-29T11:29:04;8.63;;;4.80;;
18754;SDS011;35061;47.664;9.166;2023-05-29T11:31:39;6.30;;;4.60;;
18754;SDS011;35061;47.664;9.166;2023-05-29T11:34:09;6.85;;;4.37;;
18754;SDS011;35061;47.664;9.166;2023-05-29T11:36:41;5.82;;;4.37;;
18754;SDS011;35061;47.664;9.166;2023-05-29T11:39:10;7.93;;;4.28;;
18754;SDS011;35061;47.664;9.166;2023-05-29T11:41:39;5.90;;;4.30;;
18754;SDS011;35061;47.664;9.166;2023-05-29T11:44:07;5.60;;;3.92;;
18754;SDS011;35061;47.664;9.166;2023-05-29T11:46:35;7.10;;;4.30;;
18754;SDS011;35061;47.664;9.166;2023-05-29T11:49:03;4.62;;;4.12;;
18754;SDS011;35061;47.664;9.166;2023-05-29T11:51:31;5.50;;;4.57;;
18754;SDS011;35061;47.664;9.166;2023-05-29T11:53:59;6.57;;;4.20;;
18754;SDS011;35061;47.664;9.166;2023-05-29T11:56:27;4.57;;;3.97;;
18754;SDS011;35061;47.664;9.166;2023-05-29T11:58:58;7.28;;;4.72;;
18754;SDS011;35061;47.664;9.166;2023-05-29T12:01:27;6.93;;;4.55;;
18754;SDS011;35061;47.664;9.166;2023-05-29T12:03:55;5.60;;;4.70;;
18754;SDS011;35061;47.664;9.166;2023-05-29T12:06:30;5.47;;;4.28;;
18754;SDS011;35061;47.664;9.166;2023-05-29T12:09:00;4.72;;;3.95;;
18754;SDS011;35061;47.664;9.166;2023-05-29T12:11:28;5.20;;;4.57;;
18754;SDS011;35061;47.664;9.166;2023-05-29T12:13:59;4.55;;;4.05;;
18754;SDS011;35061;47.664;9.166;2023-05-29T12:16:28;6.00;;;4.50;;
18754;SDS011;35061;47.664;9.166;2023-05-29T12:18:58;5.05;;;4.05;;
18754;SDS011;35061;47.664;9.166;2023-05-29T12:21:27;4.28;;;3.87;;
18754;SDS011;35061;47.664;9.166;2023-05-29T12:23:55;5.97;;;4.85;;
18754;SDS011;35061;47.664;9.166;2023-05-29T12:26:39;6.35;;;4.70;;
18754;SDS011;35061;47.664;9.166;2023-05-29T12:29:08;5.85;;;3.72;;
18754;SDS011;35061;47.664;9.166;2023-05-29T12:31:35;5.28;;;3.92;;
18754;SDS011;35061;47.664;9.166;2023-05-29T12:34:07;4.90;;;3.83;;
18754;SDS011;35061;47.664;9.166;2023-05-29T12:36:40;4.45;;;3.95;;
18754;SDS011;35061;47.664;9.166;2023-05-29T12:39:10;5.50;;;3.92;;
18754;SDS011;35061;47.664;9.166;2023-05-29T12:41:39;11.50;;;4.57;;
18754;SDS011;35061;47.664;9.166;2023-05-29T12:44:08;6.18;;;4.10;;
18754;SDS011;35061;47.664;9.166;2023-05-29T12:46:42;4.68;;;3.53;;
18754;SDS011;35061;47.664;9.166;2023-05-29T12:49:14;3.65;;;3.33;;
18754;SDS011;35061;47.664;9.166;2023-05-29T12:51:44;6.12;;;3.72;;
18754;SDS011;35061;47.664;9.166;2023-05-29T12:54:14;4.30;;;3.83;;
18754;SDS011;35061;47.664;9.166;2023-05-29T12:56:43;4.87;;;3.70;;
18754;SDS011;35061;47.664;9.166;2023-05-29T12:59:13;4.45;;;3.58;;
18754;SDS011;35061;47.664;9.166;2023-05-29T13:01:42;3.80;;;3.50;;
18754;SDS011;35061;47.664;9.166;2023-05-29T13:04:11;4.00;;;3.58;;
18754;SDS011;35061;47.664;9.166;2023-05-29T13:06:40;4.87;;;3.58;;
18754;SDS011;35061;47.664;9.166;2023-05-29T13:09:08;4.20;;;3.75;;
18754;SDS011;35061;47.664;9.166;2023-05-29T13:11:36;5.05;;;3.42;;
18754;SDS011;35061;47.664;9.166;2023-05-29T13:14:04;4.85;;;3.40;;
18754;SDS011;35061;47.664;9.166;2023-05-29T13:16:32;6.57;;;4.18;;
18754;SDS011;35061;47.664;9.166;2023-05-29T13:19:00;4.12;;;3.50;;
18754;SDS011;35061;47.664;9.166;2023-05-29T13:21:28;4.00;;;3.60;;
18754;SDS011;35061;47.664;9.166;2023-05-29T13:23:56;6.40;;;3.67;;
18754;SDS011;35061;47.664;9.166;2023-05-29T13:26:24;4.97;;;3.40;;
18754;SDS011;35061;47.664;9.166;2023-05-29T13:28:53;4.22;;;3.65;;
18754;SDS011;35061;47.664;9.166;2023-05-29T13:31:21;4.22;;;3.62;;
18754;SDS011;35061;47.664;9.166;2023-05-29T13:33:49;3.92;;;3.17;;
18754;SDS011;35061;47.664;9.166;2023-05-29T13:36:17;6.45;;;3.83;;
18754;SDS011;35061;47.664;9.166;2023-05-29T13:38:45;4.37;;;3.30;;
18754;SDS011;35061;47.664;9.166;2023-05-29T13:41:13;5.20;;;3.42;;
18754;SDS011;35061;47.664;9.166;2023-05-29T13:43:41;4.03;;;3.17;;
18754;SDS011;35061;47.664;9.166;2023-05-29T13:46:11;4.72;;;3.10;;
18754;SDS011;35061;47.664;9.166;2023-05-29T13:48:40;4.62;;;3.55;;
18754;SDS011;35061;47.664;9.166;2023-05-29T13:51:08;4.03;;;3.42;;
18754;SDS011;35061;47.664;9.166;2023-05-29T13:53:36;5.30;;;3.15;;
18754;SDS011;35061;47.664;9.166;2023-05-29T13:56:04;4.97;;;3.20;;
18754;SDS011;35061;47.664;9.166;2023-05-29T13:58:32;3.10;;;2.80;;
18754;SDS011;35061;47.664;9.166;2023-05-29T14:01:00;3.80;;;3.20;;
18754;SDS011;35061;47.664;9.166;2023-05-29T14:03:28;4.43;;;3.03;;
18754;SDS011;35061;47.664;9.166;2023-05-29T14:05:56;4.87;;;3.40;;
18754;SDS011;35061;47.664;9.166;2023-05-29T14:08:24;4.65;;;3.20;;
18754;SDS011;35061;47.664;9.166;2023-05-29T14:10:52;3.50;;;3.10;;
18754;SDS011;35061;47.664;9.166;2023-05-29T14:13:20;5.70;;;3.10;;
18754;SDS011;35061;47.664;9.166;2023-05-29T14:15:48;6.62;;;3.65;;
18754;SDS011;35061;47.664;9.166;2023-05-29T14:18:16;4.57;;;3.22;;
18754;SDS011;35061;47.664;9.166;2023-05-29T14:20:44;4.95;;;3.33;;
18754;SDS011;35061;47.664;9.166;2023-05-29T14:23:18;3.78;;;3.03;;
18754;SDS011;35061;47.664;9.166;2023-05-29T14:25:47;3.83;;;3.37;;
18754;SDS011;35061;47.664;9.166;2023-05-29T14:28:15;3.75;;;3.00;;
18754;SDS011;35061;47.664;9.166;2023-05-29T14:30:43;3.92;;;3.28;;
18754;SDS011;35061;47.664;9.166;2023-05-29T14:33:11;4.43;;;3.45;;
18754;SDS011;35061;47.664;9.166;2023-05-29T14:35:39;4.03;;;2.92;;
18754;SDS011;35061;47.664;9.166;2023-05-29T14:38:07;5.05;;;3.37;;
18754;SDS011;35061;47.664;9.166;2023-05-29T14:40:35;4.43;;;2.90;;
18754;SDS011;35061;47.664;9.166;2023-05-29T14:43:03;3.70;;;3.33;;
18754;SDS011;35061;47.664;9.166;2023-05-29T14:45:31;3.67;;;3.28;;
18754;SDS011;35061;47.664;9.166;2023-05-29T14:48:00;3.20;;;2.90;;
18754;SDS011;35061;47.664;9.166;2023-05-29T14:50:29;3.05;;;2.58;;
18754;SDS011;35061;47.664;9.166;2023-05-29T14:52:57;3.22;;;2.92;;
18754;SDS011;35061;47.664;9.166;2023-05-29T14:55:25;3.50;;;2.83;;
18754;SDS011;35061;47.664;9.166;2023-05-29T14:57:53;3.47;;;2.78;;
18754;SDS011;35061;47.664;9.166;2023-05-29T15:00:21;2.83;;;2.55;;
18754;SDS011;35061;47.664;9.166;2023-05-29T15:02:49;3.67;;;3.30;;
18754;SDS011;35061;47.664;9.166;2023-05-29T15:05:17;3.37;;;2.90;;
18754;SDS011;35061;47.664;9.166;2023-05-29T15:07:46;3.53;;;2.92;;
18754;SDS011;35061;47.664;9.166;2023-05-29T15:10:14;3.58;;;3.03;;
18754;SDS011;35061;47.664;9.166;2023-05-29T15:12:44;3.37;;;3.08;;
18754;SDS011;35061;47.664;9.166;2023-05-29T15:15:12;4.82;;;3.17;;
18754;SDS011;35061;47.664;9.166;2023-05-29T15:17:40;2.75;;;2.53;;
18754;SDS011;35061;47.664;9.166;2023-05-29T15:20:08;3.70;;;3.10;;
18754;SDS011;35061;47.664;9.166;2023-05-29T15:22:37;3.33;;;2.60;;
18754;SDS011;35061;47.664;9.166;2023-05-29T15:25:05;3.95;;;3.17;;